sensor_id;sensor_type;location;lat;lon;timestamp;pressure;altitude;pressure_sealevel;temperature;humidity
50484;BME280;36409;52.168;20.878;2023-08-17T00:01:32;100803.73;;;24.02;58.63
50484;BME280;36409;52.168;20.878;2023-08-17T00:04:05;100804.80;;;23.99;58.86
50484;BME280;36409;52.168;20.878;2023-08-17T00:06:40;100807.58;;;23.98;59.04
50484;BME280;36409;52.168;20.878;2023-08-17T00:09:12;100808.67;;;23.94;58.91
50484;BME280;36409;52.168;20.878;2023-08-17T00:11:44;100800.98;;;23.89;58.69
50484;BME280;36409;52.168;20.878;2023-08-17T00:14:20;100805.66;;;23.85;59.29
50484;BME280;36409;52.168;20.878;2023-08-17T00:16:52;100806.61;;;23.84;58.90
50484;BME280;36409;52.168;20.878;2023-08-17T00:19:24;100807.63;;;23.82;58.99
50484;BME280;36409;52.168;20.878;2023-08-17T00:21:56;100801.64;;;23.78;59.09
50484;BME280;36409;52.168;20.878;2023-08-17T00:24:29;100803.55;;;23.76;59.67
50484;BME280;36409;52.168;20.878;2023-08-17T00:27:01;100808.88;;;23.76;59.40
50484;BME280;36409;52.168;20.878;2023-08-17T00:29:35;100806.20;;;23.76;60.02
50484;BME280;36409;52.168;20.878;2023-08-17T00:32:09;100803.66;;;23.74;59.47
50484;BME280;36409;52.168;20.878;2023-08-17T00:34:39;100809.09;;;23.73;60.01
50484;BME280;36409;52.168;20.878;2023-08-17T00:37:12;100814.60;;;23.70;59.50
50484;BME280;36409;52.168;20.878;2023-08-17T00:39:44;100814.60;;;23.70;60.30
50484;BME280;36409;52.168;20.878;2023-08-17T00:42:16;100823.36;;;23.72;60.10
50484;BME280;36409;52.168;20.878;2023-08-17T00:44:48;100820.70;;;23.72;59.93
50484;BME280;36409;52.168;20.878;2023-08-17T00:47:20;100826.20;;;23.69;60.05
50484;BME280;36409;52.168;20.878;2023-08-17T00:49:54;100823.66;;;23.67;60.02
50484;BME280;36409;52.168;20.878;2023-08-17T00:52:27;100820.11;;;23.67;60.51
50484;BME280;36409;52.168;20.878;2023-08-17T00:55:02;100815.84;;;23.64;60.17
50484;BME280;36409;52.168;20.878;2023-08-17T00:57:38;100817.66;;;23.64;60.13
50484;BME280;36409;52.168;20.878;2023-08-17T01:00:12;100809.67;;;23.64;60.68
50484;BME280;36409;52.168;20.878;2023-08-17T01:02:49;100806.13;;;23.63;60.77
50484;BME280;36409;52.168;20.878;2023-08-17T01:05:23;100807.95;;;23.63;60.40
50484;BME280;36409;52.168;20.878;2023-08-17T01:07:59;100806.31;;;23.60;60.83
50484;BME280;36409;52.168;20.878;2023-08-17T01:10:41;100800.15;;;23.59;60.78
50484;BME280;36409;52.168;20.878;2023-08-17T01:13:20;100803.94;;;23.55;61.15
50484;BME280;36409;52.168;20.878;2023-08-17T01:15:58;100808.32;;;23.56;60.78
50484;BME280;36409;52.168;20.878;2023-08-17T01:18:33;100790.84;;;23.52;61.23
50484;BME280;36409;52.168;20.878;2023-08-17T01:21:09;100798.06;;;23.50;61.22
50484;BME280;36409;52.168;20.878;2023-08-17T01:23:42;100793.76;;;23.48;61.34
50484;BME280;36409;52.168;20.878;2023-08-17T01:26:16;100782.37;;;23.46;60.97
50484;BME280;36409;52.168;20.878;2023-08-17T01:28:48;100779.88;;;23.42;61.55
50484;BME280;36409;52.168;20.878;2023-08-17T01:31:23;100789.66;;;23.42;61.44
50484;BME280;36409;52.168;20.878;2023-08-17T01:34:02;100798.53;;;23.42;61.90
50484;BME280;36409;52.168;20.878;2023-08-17T01:36:42;100788.83;;;23.41;61.93
50484;BME280;36409;52.168;20.878;2023-08-17T01:39:18;100793.20;;;23.42;61.40
50484;BME280;36409;52.168;20.878;2023-08-17T01:41:54;100799.48;;;23.41;61.91
50484;BME280;36409;52.168;20.878;2023-08-17T01:44:28;100793.38;;;23.39;62.07
50484;BME280;36409;52.168;20.878;2023-08-17T01:47:00;100804.98;;;23.38;61.70
50484;BME280;36409;52.168;20.878;2023-08-17T01:49:32;100806.80;;;23.38;61.87
50484;BME280;36409;52.168;20.878;2023-08-17T01:52:05;100806.80;;;23.38;62.24
50484;BME280;36409;52.168;20.878;2023-08-17T01:54:39;100806.03;;;23.36;61.95
50484;BME280;36409;52.168;20.878;2023-08-17T01:57:12;100802.78;;;23.31;62.01
50484;BME280;36409;52.168;20.878;2023-08-17T01:59:44;100794.23;;;23.25;62.22
50484;BME280;36409;52.168;20.878;2023-08-17T02:02:17;100790.91;;;23.22;62.53
50484;BME280;36409;52.168;20.878;2023-08-17T02:04:50;100790.91;;;23.22;62.74
50484;BME280;36409;52.168;20.878;2023-08-17T02:07:23;100784.81;;;23.20;62.53
50484;BME280;36409;52.168;20.878;2023-08-17T02:09:55;100794.41;;;23.22;62.82
50484;BME280;36409;52.168;20.878;2023-08-17T02:12:27;100784.81;;;23.20;62.56
50484;BME280;36409;52.168;20.878;2023-08-17T02:15:00;100790.14;;;23.20;62.75
50484;BME280;36409;52.168;20.878;2023-08-17T02:17:32;100779.39;;;23.21;62.95
50484;BME280;36409;52.168;20.878;2023-08-17T02:20:06;100775.70;;;23.24;63.00
50484;BME280;36409;52.168;20.878;2023-08-17T02:22:39;100767.72;;;23.24;62.42
50484;BME280;36409;52.168;20.878;2023-08-17T02:25:12;100771.33;;;23.23;62.62
50484;BME280;36409;52.168;20.878;2023-08-17T02:27:44;100760.68;;;23.23;63.04
50484;BME280;36409;52.168;20.878;2023-08-17T02:30:16;100771.51;;;23.20;62.63
50484;BME280;36409;52.168;20.878;2023-08-17T02:32:48;100769.69;;;23.20;63.00
50484;BME280;36409;52.168;20.878;2023-08-17T02:35:21;100777.74;;;23.19;62.65
50484;BME280;36409;52.168;20.878;2023-08-17T02:37:53;100772.42;;;23.19;62.79
50484;BME280;36409;52.168;20.878;2023-08-17T02:40:25;100786.42;;;23.22;62.93
50484;BME280;36409;52.168;20.878;2023-08-17T02:42:58;100782.82;;;23.23;63.18
50484;BME280;36409;52.168;20.878;2023-08-17T02:45:30;100792.52;;;23.24;63.43
50484;BME280;36409;52.168;20.878;2023-08-17T02:48:02;100790.63;;;23.26;62.91
50484;BME280;36409;52.168;20.878;2023-08-17T02:50:35;100797.67;;;23.27;63.04
50484;BME280;36409;52.168;20.878;2023-08-17T02:53:07;100796.72;;;23.28;62.95
50484;BME280;36409;52.168;20.878;2023-08-17T02:55:40;100797.56;;;23.29;63.51
50484;BME280;36409;52.168;20.878;2023-08-17T02:58:13;100796.62;;;23.30;63.68
50484;BME280;36409;52.168;20.878;2023-08-17T03:00:45;100801.84;;;23.32;63.16
50484;BME280;36409;52.168;20.878;2023-08-17T03:03:17;100802.78;;;23.31;63.57
50484;BME280;36409;52.168;20.878;2023-08-17T03:05:50;100808.11;;;23.31;63.58
50484;BME280;36409;52.168;20.878;2023-08-17T03:08:22;100809.92;;;23.30;63.32
50484;BME280;36409;52.168;20.878;2023-08-17T03:10:56;100818.02;;;23.28;63.57
50484;BME280;36409;52.168;20.878;2023-08-17T03:13:28;100821.63;;;23.27;63.71
50484;BME280;36409;52.168;20.878;2023-08-17T03:16:01;100833.23;;;23.26;63.56
50484;BME280;36409;52.168;20.878;2023-08-17T03:18:33;100842.16;;;23.25;63.81
50484;BME280;36409;52.168;20.878;2023-08-17T03:21:06;100842.16;;;23.25;63.98
50484;BME280;36409;52.168;20.878;2023-08-17T03:23:39;100838.73;;;23.23;64.00
50484;BME280;36409;52.168;20.878;2023-08-17T03:26:12;100841.50;;;23.22;63.87
50484;BME280;36409;52.168;20.878;2023-08-17T03:28:44;100841.73;;;23.17;63.65
50484;BME280;36409;52.168;20.878;2023-08-17T03:31:17;100833.75;;;23.17;63.65
50484;BME280;36409;52.168;20.878;2023-08-17T03:33:51;100833.83;;;23.16;63.90
50484;BME280;36409;52.168;20.878;2023-08-17T03:36:24;100831.27;;;23.14;64.05
50484;BME280;36409;52.168;20.878;2023-08-17T03:38:56;100828.78;;;23.11;63.71
50484;BME280;36409;52.168;20.878;2023-08-17T03:41:29;100829.83;;;23.08;64.21
50484;BME280;36409;52.168;20.878;2023-08-17T03:44:01;100829.94;;;23.07;63.95
50484;BME280;36409;52.168;20.878;2023-08-17T03:46:36;100841.42;;;23.07;63.96
50484;BME280;36409;52.168;20.878;2023-08-17T03:49:09;100843.14;;;23.08;64.22
50484;BME280;36409;52.168;20.878;2023-08-17T03:51:41;100855.50;;;23.09;64.06
50484;BME280;36409;52.168;20.878;2023-08-17T03:54:16;100849.12;;;23.12;64.02
50484;BME280;36409;52.168;20.878;2023-08-17T03:56:51;100857.12;;;23.12;64.15
50484;BME280;36409;52.168;20.878;2023-08-17T03:59:23;100859.78;;;23.12;64.02
50484;BME280;36409;52.168;20.878;2023-08-17T04:01:56;100849.12;;;23.12;63.97
50484;BME280;36409;52.168;20.878;2023-08-17T04:04:29;100848.19;;;23.13;64.54
50484;BME280;36409;52.168;20.878;2023-08-17T04:07:02;100852.66;;;23.12;64.33
50484;BME280;36409;52.168;20.878;2023-08-17T04:09:34;100864.16;;;23.13;64.33
50484;BME280;36409;52.168;20.878;2023-08-17T04:12:08;100853.51;;;23.13;64.38
50484;BME280;36409;52.168;20.878;2023-08-17T04:14:40;100852.46;;;23.16;63.95
50484;BME280;36409;52.168;20.878;2023-08-17T04:17:12;100855.05;;;23.17;64.19
50484;BME280;36409;52.168;20.878;2023-08-17T04:19:45;100846.05;;;23.20;64.23
50484;BME280;36409;52.168;20.878;2023-08-17T04:22:17;100843.21;;;23.23;64.27
50484;BME280;36409;52.168;20.878;2023-08-17T04:24:50;100849.20;;;23.26;63.81
50484;BME280;36409;52.168;20.878;2023-08-17T04:27:22;100843.59;;;23.31;64.41
50484;BME280;36409;52.168;20.878;2023-08-17T04:29:55;100843.03;;;23.40;64.29
50484;BME280;36409;52.168;20.878;2023-08-17T04:32:27;100846.18;;;23.47;64.08
50484;BME280;36409;52.168;20.878;2023-08-17T04:34:59;100843.05;;;23.55;63.65
50484;BME280;36409;52.168;20.878;2023-08-17T04:37:32;100846.75;;;23.67;63.61
50484;BME280;36409;52.168;20.878;2023-08-17T04:40:07;100842.88;;;24.01;63.82
50484;BME280;36409;52.168;20.878;2023-08-17T04:42:42;100845.12;;;24.22;63.55
50484;BME280;36409;52.168;20.878;2023-08-17T04:45:14;100850.05;;;24.28;62.98
50484;BME280;36409;52.168;20.878;2023-08-17T04:47:48;100853.59;;;24.29;62.78
50484;BME280;36409;52.168;20.878;2023-08-17T04:50:21;100856.25;;;24.29;62.59
50484;BME280;36409;52.168;20.878;2023-08-17T04:52:53;100852.52;;;24.31;62.73
50484;BME280;36409;52.168;20.878;2023-08-17T04:55:25;100863.00;;;24.34;62.41
50484;BME280;36409;52.168;20.878;2023-08-17T04:57:58;100856.61;;;24.37;62.67
50484;BME280;36409;52.168;20.878;2023-08-17T05:00:31;100860.69;;;24.43;62.22
50484;BME280;36409;52.168;20.878;2023-08-17T05:03:06;100868.38;;;24.47;62.47
50484;BME280;36409;52.168;20.878;2023-08-17T05:05:54;100858.28;;;24.52;62.42
50484;BME280;36409;52.168;20.878;2023-08-17T05:08:26;100859.89;;;24.55;62.26
50484;BME280;36409;52.168;20.878;2023-08-17T05:10:59;100855.50;;;24.54;62.10
50484;BME280;36409;52.168;20.878;2023-08-17T05:13:32;100855.81;;;24.49;61.64
50484;BME280;36409;52.168;20.878;2023-08-17T05:16:06;100865.06;;;24.44;62.06
50484;BME280;36409;52.168;20.878;2023-08-17T05:18:39;100873.37;;;24.39;61.68
50484;BME280;36409;52.168;20.878;2023-08-17T05:21:13;100869.09;;;24.36;61.96
50484;BME280;36409;52.168;20.878;2023-08-17T05:23:45;100870.23;;;24.32;61.86
50484;BME280;36409;52.168;20.878;2023-08-17T05:26:17;100866.81;;;24.30;61.74
50484;BME280;36409;52.168;20.878;2023-08-17T05:28:50;100864.33;;;24.27;61.48
50484;BME280;36409;52.168;20.878;2023-08-17T05:31:22;100865.20;;;24.28;61.05
50484;BME280;36409;52.168;20.878;2023-08-17T05:33:55;100859.88;;;24.28;61.14
50484;BME280;36409;52.168;20.878;2023-08-17T05:36:28;100858.05;;;24.28;61.19
50484;BME280;36409;52.168;20.878;2023-08-17T05:39:00;100852.71;;;24.28;61.09
50484;BME280;36409;52.168;20.878;2023-08-17T05:41:32;100855.30;;;24.30;61.13
50484;BME280;36409;52.168;20.878;2023-08-17T05:44:05;100858.73;;;24.32;60.90
50484;BME280;36409;52.168;20.878;2023-08-17T05:46:39;100852.34;;;24.34;60.58
50484;BME280;36409;52.168;20.878;2023-08-17T05:49:11;100843.16;;;24.39;61.02
50484;BME280;36409;52.168;20.878;2023-08-17T05:51:43;100842.85;;;24.43;60.77
50484;BME280;36409;52.168;20.878;2023-08-17T05:54:18;100844.38;;;24.47;60.66
50484;BME280;36409;52.168;20.878;2023-08-17T05:56:53;100837.02;;;24.51;60.89
50484;BME280;36409;52.168;20.878;2023-08-17T05:59:25;100845.67;;;24.55;60.53
50484;BME280;36409;52.168;20.878;2023-08-17T06:01:58;100840.91;;;24.60;60.62
50484;BME280;36409;52.168;20.878;2023-08-17T06:04:30;100833.47;;;24.65;60.29
50484;BME280;36409;52.168;20.878;2023-08-17T06:07:03;100835.75;;;24.71;60.97
50484;BME280;36409;52.168;20.878;2023-08-17T06:09:42;100836.31;;;24.76;60.37
50484;BME280;36409;52.168;20.878;2023-08-17T06:12:15;100842.17;;;24.81;59.96
50484;BME280;36409;52.168;20.878;2023-08-17T06:14:49;100836.33;;;24.89;59.78
50484;BME280;36409;52.168;20.878;2023-08-17T06:17:21;100831.44;;;24.96;60.03
50484;BME280;36409;52.168;20.878;2023-08-17T06:19:54;100837.22;;;25.03;59.84
50484;BME280;36409;52.168;20.878;2023-08-17T06:22:27;100842.04;;;25.10;59.85
50484;BME280;36409;52.168;20.878;2023-08-17T06:25:00;100851.97;;;25.21;59.38
50484;BME280;36409;52.168;20.878;2023-08-17T06:27:32;100847.82;;;25.30;59.37
50484;BME280;36409;52.168;20.878;2023-08-17T06:30:13;100850.69;;;25.40;59.09
50484;BME280;36409;52.168;20.878;2023-08-17T06:32:47;100854.58;;;25.49;59.17
50484;BME280;36409;52.168;20.878;2023-08-17T06:35:19;100849.55;;;25.57;59.03
50484;BME280;36409;52.168;20.878;2023-08-17T06:37:52;100851.80;;;25.63;58.67
50484;BME280;36409;52.168;20.878;2023-08-17T06:40:29;100849.64;;;25.68;58.87
50484;BME280;36409;52.168;20.878;2023-08-17T06:43:02;100860.13;;;25.71;58.63
50484;BME280;36409;52.168;20.878;2023-08-17T06:45:35;100854.58;;;25.74;58.31
50484;BME280;36409;52.168;20.878;2023-08-17T06:48:08;100854.88;;;25.83;58.24
50484;BME280;36409;52.168;20.878;2023-08-17T06:50:41;100855.42;;;25.88;58.01
50484;BME280;36409;52.168;20.878;2023-08-17T06:53:14;100858.72;;;25.92;57.93
50484;BME280;36409;52.168;20.878;2023-08-17T06:55:47;100856.67;;;25.95;58.01
50484;BME280;36409;52.168;20.878;2023-08-17T06:58:20;100855.72;;;25.96;57.62
50484;BME280;36409;52.168;20.878;2023-08-17T07:00:52;100856.34;;;26.00;58.07
50484;BME280;36409;52.168;20.878;2023-08-17T07:03:25;100864.91;;;26.05;57.61
50484;BME280;36409;52.168;20.878;2023-08-17T07:05:58;100856.45;;;26.11;57.70
50484;BME280;36409;52.168;20.878;2023-08-17T07:08:30;100868.66;;;26.15;57.72
50484;BME280;36409;52.168;20.878;2023-08-17T07:11:02;100865.64;;;26.20;57.53
50484;BME280;36409;52.168;20.878;2023-08-17T07:13:39;100868.20;;;26.21;57.52
50484;BME280;36409;52.168;20.878;2023-08-17T07:16:11;100866.68;;;26.30;57.19
50484;BME280;36409;52.168;20.878;2023-08-17T07:18:44;100872.94;;;26.42;57.18
50484;BME280;36409;52.168;20.878;2023-08-17T07:21:17;100873.97;;;26.52;56.83
50484;BME280;36409;52.168;20.878;2023-08-17T07:23:50;100875.64;;;26.66;57.01
50484;BME280;36409;52.168;20.878;2023-08-17T07:26:23;100880.30;;;26.76;56.64
50484;BME280;36409;52.168;20.878;2023-08-17T07:28:56;100869.16;;;26.82;56.69
50484;BME280;36409;52.168;20.878;2023-08-17T07:31:29;100870.86;;;26.83;56.55
50484;BME280;36409;52.168;20.878;2023-08-17T07:34:02;100875.25;;;26.84;56.53
50484;BME280;36409;52.168;20.878;2023-08-17T07:36:35;100870.86;;;26.83;56.38
50484;BME280;36409;52.168;20.878;2023-08-17T07:39:10;100874.06;;;26.88;56.35
50484;BME280;36409;52.168;20.878;2023-08-17T07:41:44;100872.61;;;26.95;56.35
50484;BME280;36409;52.168;20.878;2023-08-17T07:44:22;100864.39;;;27.10;56.24
50484;BME280;36409;52.168;20.878;2023-08-17T07:46:54;100864.52;;;27.20;56.05
50484;BME280;36409;52.168;20.878;2023-08-17T07:49:27;100868.33;;;27.28;55.90
50484;BME280;36409;52.168;20.878;2023-08-17T07:52:20;100868.95;;;27.43;55.74
50484;BME280;36409;52.168;20.878;2023-08-17T07:54:53;100869.88;;;27.55;55.56
50484;BME280;36409;52.168;20.878;2023-08-17T07:57:26;100864.63;;;27.65;55.47
50484;BME280;36409;52.168;20.878;2023-08-17T07:59:59;100870.86;;;27.77;55.29
50484;BME280;36409;52.168;20.878;2023-08-17T08:02:38;100865.26;;;27.92;55.07
50484;BME280;36409;52.168;20.878;2023-08-17T08:05:10;100871.98;;;28.09;55.00
50484;BME280;36409;52.168;20.878;2023-08-17T08:07:45;100873.89;;;28.29;54.87
50484;BME280;36409;52.168;20.878;2023-08-17T08:10:18;100869.83;;;28.46;54.61
50484;BME280;36409;52.168;20.878;2023-08-17T08:12:51;100876.86;;;28.59;54.33
50484;BME280;36409;52.168;20.878;2023-08-17T08:15:24;100870.38;;;28.73;54.21
50484;BME280;36409;52.168;20.878;2023-08-17T08:17:56;100867.75;;;28.82;54.12
50484;BME280;36409;52.168;20.878;2023-08-17T08:20:29;100873.06;;;28.94;53.85
50484;BME280;36409;52.168;20.878;2023-08-17T08:23:02;100874.02;;;29.04;53.61
50484;BME280;36409;52.168;20.878;2023-08-17T08:25:35;100868.84;;;29.12;53.22
50484;BME280;36409;52.168;20.878;2023-08-17T08:28:08;100863.40;;;29.24;53.36
50484;BME280;36409;52.168;20.878;2023-08-17T08:30:41;100867.65;;;29.26;53.07
50484;BME280;36409;52.168;20.878;2023-08-17T08:33:14;100885.29;;;29.19;52.92
50484;BME280;36409;52.168;20.878;2023-08-17T08:35:47;100874.40;;;29.21;52.87
50484;BME280;36409;52.168;20.878;2023-08-17T08:38:17;100874.47;;;29.31;52.56
50484;BME280;36409;52.168;20.878;2023-08-17T08:40:50;100866.22;;;29.43;52.78
50484;BME280;36409;52.168;20.878;2023-08-17T08:43:24;100868.74;;;29.66;52.70
50484;BME280;36409;52.168;20.878;2023-08-17T08:45:57;100865.86;;;29.89;52.49
50484;BME280;36409;52.168;20.878;2023-08-17T08:48:30;100866.94;;;30.08;52.30
50484;BME280;36409;52.168;20.878;2023-08-17T08:51:07;100865.72;;;30.22;52.08
50484;BME280;36409;52.168;20.878;2023-08-17T08:53:45;100862.30;;;30.29;51.51
50484;BME280;36409;52.168;20.878;2023-08-17T08:56:20;100866.75;;;30.50;51.35
50484;BME280;36409;52.168;20.878;2023-08-17T08:58:56;100862.09;;;30.81;51.15
50484;BME280;36409;52.168;20.878;2023-08-17T09:01:31;100865.62;;;31.21;50.92
50484;BME280;36409;52.168;20.878;2023-08-17T09:04:05;100862.56;;;31.54;50.68
50484;BME280;36409;52.168;20.878;2023-08-17T09:06:41;100865.69;;;31.97;50.08
50484;BME280;36409;52.168;20.878;2023-08-17T09:09:18;100862.47;;;32.39;49.80
50484;BME280;36409;52.168;20.878;2023-08-17T09:11:51;100859.77;;;32.75;48.90
50484;BME280;36409;52.168;20.878;2023-08-17T09:14:22;100852.53;;;33.20;49.12
50484;BME280;36409;52.168;20.878;2023-08-17T09:16:54;100855.77;;;33.50;48.40
50484;BME280;36409;52.168;20.878;2023-08-17T09:19:30;100855.27;;;33.81;47.78
50484;BME280;36409;52.168;20.878;2023-08-17T09:22:03;100855.53;;;34.05;47.82
50484;BME280;36409;52.168;20.878;2023-08-17T09:24:37;100856.28;;;34.31;47.05
50484;BME280;36409;52.168;20.878;2023-08-17T09:27:13;100854.98;;;34.60;46.71
50484;BME280;36409;52.168;20.878;2023-08-17T09:29:45;100850.61;;;34.92;46.60
50484;BME280;36409;52.168;20.878;2023-08-17T09:32:17;100850.60;;;35.09;45.94
50484;BME280;36409;52.168;20.878;2023-08-17T09:34:50;100853.12;;;35.27;45.51
50484;BME280;36409;52.168;20.878;2023-08-17T09:37:22;100856.63;;;35.36;44.98
50484;BME280;36409;52.168;20.878;2023-08-17T09:39:55;100848.34;;;35.46;44.76
50484;BME280;36409;52.168;20.878;2023-08-17T09:42:27;100847.92;;;35.65;44.49
50484;BME280;36409;52.168;20.878;2023-08-17T09:44:59;100850.58;;;35.82;43.96
50484;BME280;36409;52.168;20.878;2023-08-17T09:47:33;100852.44;;;35.81;43.26
50484;BME280;36409;52.168;20.878;2023-08-17T09:50:09;100840.87;;;35.96;42.97
50484;BME280;36409;52.168;20.878;2023-08-17T09:52:42;100843.85;;;36.09;42.44
50484;BME280;36409;52.168;20.878;2023-08-17T09:55:15;100844.28;;;36.21;42.25
50484;BME280;36409;52.168;20.878;2023-08-17T09:57:52;100844.62;;;36.50;41.96
50484;BME280;36409;52.168;20.878;2023-08-17T10:00:25;100840.98;;;36.34;41.55
50484;BME280;36409;52.168;20.878;2023-08-17T10:03:00;100844.84;;;36.40;41.27
50484;BME280;36409;52.168;20.878;2023-08-17T10:05:40;100848.72;;;36.69;40.92
50484;BME280;36409;52.168;20.878;2023-08-17T10:08:17;100841.21;;;36.94;40.99
50484;BME280;36409;52.168;20.878;2023-08-17T10:10:51;100839.74;;;37.21;40.00
50484;BME280;36409;52.168;20.878;2023-08-17T10:13:31;100845.12;;;37.30;39.38
50484;BME280;36409;52.168;20.878;2023-08-17T10:16:11;100839.77;;;37.36;38.74
50484;BME280;36409;52.168;20.878;2023-08-17T10:18:56;100847.41;;;37.41;38.60
50484;BME280;36409;52.168;20.878;2023-08-17T10:21:40;100839.23;;;37.56;38.50
50484;BME280;36409;52.168;20.878;2023-08-17T10:24:18;100835.29;;;37.44;37.67
50484;BME280;36409;52.168;20.878;2023-08-17T10:26:52;100841.77;;;37.43;37.72
50484;BME280;36409;52.168;20.878;2023-08-17T10:29:25;100832.30;;;37.53;37.68
50484;BME280;36409;52.168;20.878;2023-08-17T10:31:58;100831.13;;;37.78;37.28
50484;BME280;36409;52.168;20.878;2023-08-17T10:34:32;100830.66;;;37.89;37.25
50484;BME280;36409;52.168;20.878;2023-08-17T10:37:06;100824.80;;;38.07;36.83
50484;BME280;36409;52.168;20.878;2023-08-17T10:39:46;100829.45;;;38.13;36.33
50484;BME280;36409;52.168;20.878;2023-08-17T10:42:31;100831.49;;;38.26;35.97
50484;BME280;36409;52.168;20.878;2023-08-17T10:45:28;100827.63;;;38.36;35.83
50484;BME280;36409;52.168;20.878;2023-08-17T10:48:26;100826.52;;;38.52;35.57
50484;BME280;36409;52.168;20.878;2023-08-17T10:51:04;100820.33;;;38.65;35.36
50484;BME280;36409;52.168;20.878;2023-08-17T10:53:38;100822.93;;;38.73;34.95
50484;BME280;36409;52.168;20.878;2023-08-17T10:56:16;100823.04;;;38.86;34.46
50484;BME280;36409;52.168;20.878;2023-08-17T10:58:52;100823.51;;;38.90;33.99
50484;BME280;36409;52.168;20.878;2023-08-17T11:01:35;100818.19;;;38.82;33.43
50484;BME280;36409;52.168;20.878;2023-08-17T11:04:16;100822.07;;;38.72;33.06
50484;BME280;36409;52.168;20.878;2023-08-17T11:07:03;100819.28;;;38.66;32.81
50484;BME280;36409;52.168;20.878;2023-08-17T11:09:38;100818.04;;;38.68;32.50
50484;BME280;36409;52.168;20.878;2023-08-17T11:12:27;100810.39;;;38.78;32.80
50484;BME280;36409;52.168;20.878;2023-08-17T11:15:01;100808.31;;;38.81;32.15
50484;BME280;36409;52.168;20.878;2023-08-17T11:17:34;100810.34;;;38.72;31.80
50484;BME280;36409;52.168;20.878;2023-08-17T11:20:08;100802.78;;;38.74;32.00
50484;BME280;36409;52.168;20.878;2023-08-17T11:22:45;100807.94;;;38.62;31.94
50484;BME280;36409;52.168;20.878;2023-08-17T11:25:18;100803.02;;;38.51;31.70
50484;BME280;36409;52.168;20.878;2023-08-17T11:27:51;100810.30;;;38.43;31.40
50484;BME280;36409;52.168;20.878;2023-08-17T11:30:23;100805.39;;;38.17;31.06
50484;BME280;36409;52.168;20.878;2023-08-17T11:32:56;100807.73;;;38.20;31.33
50484;BME280;36409;52.168;20.878;2023-08-17T11:35:29;100807.87;;;38.34;30.64
50484;BME280;36409;52.168;20.878;2023-08-17T11:38:02;100812.66;;;38.31;30.48
50484;BME280;36409;52.168;20.878;2023-08-17T11:40:38;100808.55;;;38.36;30.63
50484;BME280;36409;52.168;20.878;2023-08-17T11:43:10;100797.52;;;38.44;30.55
50484;BME280;36409;52.168;20.878;2023-08-17T11:45:43;100801.98;;;38.52;30.02
50484;BME280;36409;52.168;20.878;2023-08-17T11:48:18;100799.58;;;38.42;30.01
50484;BME280;36409;52.168;20.878;2023-08-17T11:50:51;100795.82;;;38.43;29.84
50484;BME280;36409;52.168;20.878;2023-08-17T11:53:23;100794.99;;;38.42;29.67
50484;BME280;36409;52.168;20.878;2023-08-17T11:55:56;100797.36;;;38.52;29.70
50484;BME280;36409;52.168;20.878;2023-08-17T11:58:45;100795.17;;;38.41;29.06
50484;BME280;36409;52.168;20.878;2023-08-17T12:01:21;100791.01;;;38.23;29.09
50484;BME280;36409;52.168;20.878;2023-08-17T12:03:53;100791.45;;;38.27;29.05
50484;BME280;36409;52.168;20.878;2023-08-17T12:06:26;100794.13;;;38.42;29.22
50484;BME280;36409;52.168;20.878;2023-08-17T12:08:57;100790.31;;;38.36;29.21
50484;BME280;36409;52.168;20.878;2023-08-17T12:11:29;100788.52;;;38.28;29.04
50484;BME280;36409;52.168;20.878;2023-08-17T12:14:10;100785.80;;;38.28;28.89
50484;BME280;36409;52.168;20.878;2023-08-17T12:16:49;100793.24;;;38.35;29.22
50484;BME280;36409;52.168;20.878;2023-08-17T12:19:23;100788.45;;;38.37;28.81
50484;BME280;36409;52.168;20.878;2023-08-17T12:21:57;100788.48;;;38.22;28.65
50484;BME280;36409;52.168;20.878;2023-08-17T12:24:31;100791.77;;;38.17;28.69
50484;BME280;36409;52.168;20.878;2023-08-17T12:27:06;100793.08;;;38.21;28.59
50484;BME280;36409;52.168;20.878;2023-08-17T12:29:48;100795.04;;;38.27;28.41
50484;BME280;36409;52.168;20.878;2023-08-17T12:32:21;100797.22;;;38.17;28.27
50484;BME280;36409;52.168;20.878;2023-08-17T12:34:54;100789.77;;;38.04;28.27
50484;BME280;36409;52.168;20.878;2023-08-17T12:37:26;100786.66;;;38.07;28.33
50484;BME280;36409;52.168;20.878;2023-08-17T12:39:57;100784.39;;;38.11;28.33
50484;BME280;36409;52.168;20.878;2023-08-17T12:42:29;100786.59;;;38.00;28.65
50484;BME280;36409;52.168;20.878;2023-08-17T12:45:03;100776.22;;;37.74;28.43
50484;BME280;36409;52.168;20.878;2023-08-17T12:47:37;100780.18;;;37.72;28.52
50484;BME280;36409;52.168;20.878;2023-08-17T12:50:09;100787.69;;;37.69;28.50
50484;BME280;36409;52.168;20.878;2023-08-17T12:52:41;100775.59;;;37.57;28.24
50484;BME280;36409;52.168;20.878;2023-08-17T12:55:17;100771.94;;;37.50;28.35
50484;BME280;36409;52.168;20.878;2023-08-17T12:57:56;100778.34;;;37.42;28.47
50484;BME280;36409;52.168;20.878;2023-08-17T13:00:31;100777.38;;;37.50;28.26
50484;BME280;36409;52.168;20.878;2023-08-17T13:03:05;100771.39;;;37.39;28.03
50484;BME280;36409;52.168;20.878;2023-08-17T13:05:40;100766.59;;;37.27;28.09
50484;BME280;36409;52.168;20.878;2023-08-17T13:08:12;100767.72;;;37.32;28.17
50484;BME280;36409;52.168;20.878;2023-08-17T13:10:46;100767.64;;;37.40;28.14
50484;BME280;36409;52.168;20.878;2023-08-17T13:13:17;100767.25;;;37.29;28.37
50484;BME280;36409;52.168;20.878;2023-08-17T13:15:50;100763.11;;;37.33;28.21